Time;durP1;ratioP1;P1;durP2;ratioP2;P2;SDS_P1;SDS_P2;PMS_P1;PMS_P2;Temp;Humidity;BMP_temperature;BMP_pressure;BME280_temperature;BME280_humidity;BME280_pressure;Samples;Min_cycle;Max_cycle;Signal;HPM_P1;HPM_P2
2022/01/13 00:01:08;;;;;;;123.30;18.50;;;;;;;;;;5136839;27;20842;-80
2022/01/13 00:03:34;;;;;;;106.25;16.70;;;;;;;;;;5123751;27;20040;-80
2022/01/13 00:06:01;;;;;;;125.40;18.00;;;;;;;;;;5123654;27;20067;-80
2022/01/13 00:08:27;;;;;;;124.68;18.33;;;;;;;;;;5153858;27;20078;-80
2022/01/13 00:10:54;;;;;;;114.15;18.25;;;;;;;;;;5136247;27;20139;-80
2022/01/13 00:13:24;;;;;;;104.45;17.77;;;;;;;;;;5134339;27;20087;-80
2022/01/13 00:18:39;;;;;;;132.98;19.15;;;;;;;;;;5155359;27;20800;-80
2022/01/13 00:21:29;;;;;;;140.63;19.93;;;;;;;;;;5136050;27;20502;-80
2022/01/13 00:23:59;;;;;;;113.38;18.45;;;;;;;;;;5154422;27;20053;-80
2022/01/13 00:26:27;;;;;;;119.45;18.98;;;;;;;;;;5155530;27;20895;-80
2022/01/13 00:28:55;;;;;;;102.05;17.85;;;;;;;;;;5137028;27;20075;-80
2022/01/13 00:31:26;;;;;;;101.30;17.73;;;;;;;;;;5134975;27;20051;-80
2022/01/13 00:33:57;;;;;;;103.35;17.20;;;;;;;;;;5154665;27;20055;-80
2022/01/13 00:36:24;;;;;;;118.03;18.73;;;;;;;;;;5134151;27;20102;-80
2022/01/13 00:38:51;;;;;;;107.00;19.45;;;;;;;;;;5135178;27;20896;-80
2022/01/13 00:41:18;;;;;;;112.90;18.67;;;;;;;;;;5123409;27;20079;-80
2022/01/13 00:43:46;;;;;;;120.90;18.45;;;;;;;;;;5135909;27;20088;-79
2022/01/13 00:46:21;;;;;;;100.60;16.85;;;;;;;;;;5154523;27;20050;-80
2022/01/13 00:48:49;;;;;;;123.03;17.08;;;;;;;;;;5135678;27;20089;-80
2022/01/13 00:51:15;;;;;;;82.07;15.55;;;;;;;;;;5136258;27;20505;-80
2022/01/13 00:53:42;;;;;;;77.90;13.65;;;;;;;;;;5142073;27;20509;-80
2022/01/13 00:56:08;;;;;;;91.32;15.02;;;;;;;;;;5142847;27;20567;-79
2022/01/13 00:58:35;;;;;;;75.93;14.23;;;;;;;;;;5116674;27;20818;-80
2022/01/13 01:01:03;;;;;;;88.20;14.60;;;;;;;;;;5137214;27;20051;-80
2022/01/13 01:03:29;;;;;;;70.15;13.45;;;;;;;;;;5136058;27;20103;-80
2022/01/13 01:05:56;;;;;;;90.05;15.32;;;;;;;;;;5137344;27;20128;-80
2022/01/13 01:08:23;;;;;;;78.95;15.52;;;;;;;;;;5137125;27;20058;-80
2022/01/13 01:10:52;;;;;;;82.60;14.68;;;;;;;;;;5134857;27;20948;-80
2022/01/13 01:13:22;;;;;;;95.15;13.63;;;;;;;;;;5125305;27;20105;-81
2022/01/13 01:15:52;;;;;;;81.68;12.88;;;;;;;;;;5118374;27;20051;-81
2022/01/13 01:19:07;;;;;;;75.75;13.98;;;;;;;;;;5137922;27;20058;-80
2022/01/13 01:23:56;;;;;;;68.05;13.38;;;;;;;;;;5154813;27;20055;-80
2022/01/13 01:29:04;;;;;;;74.80;13.40;;;;;;;;;;5143616;27;20106;-80
2022/01/13 01:31:34;;;;;;;69.78;12.10;;;;;;;;;;5135509;27;20104;-81
2022/01/13 01:34:18;;;;;;;76.10;13.05;;;;;;;;;;5155049;27;20565;-80
2022/01/13 01:36:46;;;;;;;85.50;13.57;;;;;;;;;;5136642;27;20027;-80
2022/01/13 01:39:13;;;;;;;83.97;15.18;;;;;;;;;;5153873;27;20070;-80
2022/01/13 01:41:50;;;;;;;79.07;13.45;;;;;;;;;;5120744;27;20063;-80
2022/01/13 01:44:18;;;;;;;75.90;13.88;;;;;;;;;;5114663;27;20105;-80
2022/01/13 01:46:46;;;;;;;68.40;13.73;;;;;;;;;;5118764;27;20051;-80
2022/01/13 01:49:25;;;;;;;118.72;15.75;;;;;;;;;;5138961;27;20031;-80
2022/01/13 01:51:53;;;;;;;106.55;14.25;;;;;;;;;;5131734;27;20574;-80
2022/01/13 01:54:19;;;;;;;100.60;14.27;;;;;;;;;;5135726;27;20119;-80
2022/01/13 01:56:46;;;;;;;94.07;15.05;;;;;;;;;;5135291;27;20055;-80
2022/01/13 01:59:16;;;;;;;100.45;14.98;;;;;;;;;;5137458;27;20055;-80
2022/01/13 02:01:43;;;;;;;93.68;14.00;;;;;;;;;;5135458;27;20577;-80
2022/01/13 02:04:10;;;;;;;92.30;14.20;;;;;;;;;;5135057;27;20047;-80
2022/01/13 02:06:37;;;;;;;91.40;16.23;;;;;;;;;;5153705;27;20488;-80
2022/01/13 02:09:05;;;;;;;122.22;16.98;;;;;;;;;;5150346;27;20146;-80
2022/01/13 02:11:41;;;;;;;84.75;15.82;;;;;;;;;;5151391;27;20055;-80
2022/01/13 02:14:30;;;;;;;74.72;14.50;;;;;;;;;;5154749;27;20228;-80
2022/01/13 02:16:56;;;;;;;99.40;15.40;;;;;;;;;;5154593;27;20587;-80
2022/01/13 02:19:26;;;;;;;87.97;15.70;;;;;;;;;;5154073;27;20055;-80
2022/01/13 02:21:53;;;;;;;106.38;16.83;;;;;;;;;;5122158;27;20047;-80
2022/01/13 02:24:19;;;;;;;100.32;15.95;;;;;;;;;;5134259;27;20150;-80
2022/01/13 02:26:45;;;;;;;138.10;17.30;;;;;;;;;;5153238;27;20108;-81
2022/01/13 02:29:12;;;;;;;104.75;15.55;;;;;;;;;;5151950;27;20082;-80
2022/01/13 02:31:38;;;;;;;112.07;17.45;;;;;;;;;;5117582;27;20059;-80
2022/01/13 02:34:04;;;;;;;106.93;17.55;;;;;;;;;;5118074;27;20051;-80
2022/01/13 02:36:31;;;;;;;104.40;16.85;;;;;;;;;;5138342;27;20062;-80
2022/01/13 02:38:59;;;;;;;107.82;16.85;;;;;;;;;;5156236;27;20738;-80
2022/01/13 02:41:26;;;;;;;114.53;15.63;;;;;;;;;;5138187;27;20051;-80
2022/01/13 02:43:53;;;;;;;101.82;15.18;;;;;;;;;;5136473;27;21098;-80
2022/01/13 02:46:33;;;;;;;84.95;14.35;;;;;;;;;;5137274;27;20047;-80
2022/01/13 02:48:59;;;;;;;104.10;14.00;;;;;;;;;;5155409;27;20059;-80
2022/01/13 02:51:27;;;;;;;102.80;13.60;;;;;;;;;;5154668;27;20128;-80
2022/01/13 02:53:53;;;;;;;90.25;14.88;;;;;;;;;;5153891;27;20133;-80
2022/01/13 02:56:20;;;;;;;102.05;14.15;;;;;;;;;;5131445;27;20055;-80
2022/01/13 02:58:46;;;;;;;102.35;14.95;;;;;;;;;;5152162;27;20052;-80
2022/01/13 03:01:13;;;;;;;92.93;15.27;;;;;;;;;;5138033;27;20579;-80
2022/01/13 03:03:41;;;;;;;88.45;13.10;;;;;;;;;;5133973;27;20105;-80
2022/01/13 03:06:09;;;;;;;83.72;15.10;;;;;;;;;;5137392;27;20059;-81
2022/01/13 03:08:36;;;;;;;92.10;14.35;;;;;;;;;;5137166;27;20054;-80
2022/01/13 03:11:02;;;;;;;105.00;14.05;;;;;;;;;;5136888;27;20047;-80
2022/01/13 03:13:30;;;;;;;91.30;13.48;;;;;;;;;;5150701;27;20053;-80
2022/01/13 03:15:56;;;;;;;106.28;13.85;;;;;;;;;;5150061;27;20058;-80
2022/01/13 03:18:23;;;;;;;121.10;15.02;;;;;;;;;;5133170;27;20116;-80
2022/01/13 03:20:49;;;;;;;106.10;13.43;;;;;;;;;;5133359;27;20055;-80
2022/01/13 03:23:17;;;;;;;158.02;16.48;;;;;;;;;;5132014;27;20056;-80
2022/01/13 03:25:45;;;;;;;112.38;13.07;;;;;;;;;;5132132;27;20101;-80
2022/01/13 03:28:18;;;;;;;123.68;15.85;;;;;;;;;;5135362;27;20164;-80
2022/01/13 03:30:44;;;;;;;104.30;13.35;;;;;;;;;;5131131;27;20056;-80
2022/01/13 03:33:12;;;;;;;100.30;16.27;;;;;;;;;;5153990;27;20101;-80
2022/01/13 03:35:39;;;;;;;128.10;16.13;;;;;;;;;;5153633;27;20055;-81
2022/01/13 03:38:06;;;;;;;126.22;15.43;;;;;;;;;;5154259;27;20055;-80
2022/01/13 03:40:33;;;;;;;125.70;17.90;;;;;;;;;;5151359;27;20089;-80
2022/01/13 03:43:01;;;;;;;133.63;16.52;;;;;;;;;;5140260;27;20051;-80
2022/01/13 03:45:28;;;;;;;110.18;15.65;;;;;;;;;;5133556;27;20046;-80
2022/01/13 03:47:55;;;;;;;100.45;15.48;;;;;;;;;;5131693;27;20074;-80
2022/01/13 03:50:21;;;;;;;129.82;17.20;;;;;;;;;;5118445;27;20052;-80
2022/01/13 03:52:57;;;;;;;138.82;18.60;;;;;;;;;;5139561;27;20086;-80
2022/01/13 03:55:23;;;;;;;134.13;16.05;;;;;;;;;;5131741;27;20031;-80
2022/01/13 03:58:10;;;;;;;100.20;15.95;;;;;;;;;;5135874;27;20956;-80
2022/01/13 04:00:55;;;;;;;136.25;18.92;;;;;;;;;;5153439;27;20968;-80
2022/01/13 04:03:22;;;;;;;144.82;19.27;;;;;;;;;;5151789;27;20039;-80
2022/01/13 04:06:03;;;;;;;144.27;18.48;;;;;;;;;;5134786;27;20108;-80
2022/01/13 04:08:30;;;;;;;135.80;17.60;;;;;;;;;;5154380;27;20077;-80
2022/01/13 04:11:06;;;;;;;124.25;17.45;;;;;;;;;;5153148;27;20580;-79
2022/01/13 04:13:46;;;;;;;110.60;17.20;;;;;;;;;;5135975;27;20052;-81
2022/01/13 04:16:14;;;;;;;132.98;17.63;;;;;;;;;;5154213;27;20112;-80
2022/01/13 04:18:40;;;;;;;133.50;18.00;;;;;;;;;;5153052;27;20051;-81
2022/01/13 04:21:07;;;;;;;136.20;17.10;;;;;;;;;;5134053;27;20055;-80
2022/01/13 04:23:33;;;;;;;127.25;16.52;;;;;;;;;;5134588;27;20093;-80
2022/01/13 04:26:00;;;;;;;147.15;18.80;;;;;;;;;;5133157;27;20087;-80
2022/01/13 04:28:28;;;;;;;131.05;16.60;;;;;;;;;;5155310;27;20047;-80
2022/01/13 04:31:01;;;;;;;151.43;18.98;;;;;;;;;;5156038;27;20055;-80
2022/01/13 04:33:31;;;;;;;102.50;16.80;;;;;;;;;;5154648;27;20055;-80
2022/01/13 04:35:58;;;;;;;138.15;18.17;;;;;;;;;;5131146;27;20062;-81
2022/01/13 04:38:25;;;;;;;109.93;17.05;;;;;;;;;;5137912;27;20109;-80
2022/01/13 04:40:56;;;;;;;133.65;17.25;;;;;;;;;;5154031;27;20848;-80
2022/01/13 04:43:24;;;;;;;141.85;17.95;;;;;;;;;;5137194;27;20085;-80
2022/01/13 04:45:50;;;;;;;135.07;18.05;;;;;;;;;;5126642;27;20565;-80
2022/01/13 04:48:17;;;;;;;118.55;16.65;;;;;;;;;;5134432;27;20506;-80
2022/01/13 04:50:44;;;;;;;134.18;16.65;;;;;;;;;;5135703;27;20070;-80
2022/01/13 04:53:11;;;;;;;123.85;18.15;;;;;;;;;;5120514;27;20114;-80
2022/01/13 04:55:38;;;;;;;125.03;18.00;;;;;;;;;;5132155;27;20109;-80
2022/01/13 04:58:06;;;;;;;98.78;14.95;;;;;;;;;;5133333;27;20053;-80
2022/01/13 05:00:33;;;;;;;112.22;16.30;;;;;;;;;;5120083;27;20116;-81
2022/01/13 05:03:00;;;;;;;111.18;16.20;;;;;;;;;;5156025;27;20073;-80
2022/01/13 05:05:26;;;;;;;87.22;15.93;;;;;;;;;;5159789;27;20090;-80
2022/01/13 05:07:52;;;;;;;109.05;15.98;;;;;;;;;;5153960;27;20055;-80
2022/01/13 05:10:19;;;;;;;125.40;17.20;;;;;;;;;;5153102;27;20051;-79
2022/01/13 05:12:55;;;;;;;125.22;18.33;;;;;;;;;;5144337;27;20059;-80
2022/01/13 05:15:24;;;;;;;140.10;18.30;;;;;;;;;;5132392;27;20056;-80
2022/01/13 05:20:24;;;;;;;124.50;18.63;;;;;;;;;;5140114;27;20586;-80
2022/01/13 05:22:50;;;;;;;126.22;19.27;;;;;;;;;;5133481;27;20277;-80
2022/01/13 05:25:17;;;;;;;123.95;18.17;;;;;;;;;;5120790;27;20060;-80
2022/01/13 05:27:45;;;;;;;127.85;19.52;;;;;;;;;;5145188;27;20075;-80
2022/01/13 05:30:12;;;;;;;123.05;19.38;;;;;;;;;;5136560;27;20104;-79
2022/01/13 05:32:38;;;;;;;145.13;19.10;;;;;;;;;;5135738;27;20056;-80
2022/01/13 05:35:05;;;;;;;151.25;21.05;;;;;;;;;;5135050;27;20058;-80
2022/01/13 05:37:31;;;;;;;139.73;19.67;;;;;;;;;;5132054;27;20549;-80
2022/01/13 05:39:58;;;;;;;133.55;20.10;;;;;;;;;;5139591;27;20050;-80
2022/01/13 05:42:25;;;;;;;163.65;21.30;;;;;;;;;;5132394;27;20534;-80
2022/01/13 05:44:52;;;;;;;139.18;19.63;;;;;;;;;;5132445;27;20073;-80
2022/01/13 05:47:18;;;;;;;117.32;18.80;;;;;;;;;;5155259;27;20063;-80
2022/01/13 05:49:44;;;;;;;163.38;21.23;;;;;;;;;;5154796;27;20052;-80
2022/01/13 05:52:12;;;;;;;142.02;19.20;;;;;;;;;;5148097;27;20496;-80
2022/01/13 05:54:39;;;;;;;153.38;19.42;;;;;;;;;;5134608;27;20082;-80
2022/01/13 05:57:05;;;;;;;133.50;18.83;;;;;;;;;;5131406;27;20058;-80
2022/01/13 05:59:32;;;;;;;119.97;19.00;;;;;;;;;;5141189;27;20128;-80
2022/01/13 06:01:58;;;;;;;133.07;18.63;;;;;;;;;;5134898;27;20043;-80
2022/01/13 06:04:25;;;;;;;124.95;19.25;;;;;;;;;;5134748;27;20102;-80
2022/01/13 06:06:51;;;;;;;113.88;18.23;;;;;;;;;;5135444;27;20090;-80
2022/01/13 06:09:18;;;;;;;161.82;20.30;;;;;;;;;;5134293;27;20087;-80
2022/01/13 06:11:55;;;;;;;125.43;17.83;;;;;;;;;;5129805;27;20081;-80
2022/01/13 06:14:21;;;;;;;108.63;17.30;;;;;;;;;;5153464;27;20492;-80
2022/01/13 06:16:47;;;;;;;125.20;18.10;;;;;;;;;;5139685;27;20066;-80
2022/01/13 06:19:14;;;;;;;146.07;20.35;;;;;;;;;;5152128;27;20065;-80
2022/01/13 06:21:41;;;;;;;118.95;17.15;;;;;;;;;;5132286;27;20078;-80
2022/01/13 06:24:07;;;;;;;114.90;18.13;;;;;;;;;;5153013;27;20047;-80
2022/01/13 06:26:33;;;;;;;118.30;17.08;;;;;;;;;;5132156;27;20112;-81
2022/01/13 06:29:00;;;;;;;131.70;19.20;;;;;;;;;;5133648;27;20632;-80
2022/01/13 06:31:26;;;;;;;107.88;17.02;;;;;;;;;;5133228;27;20109;-80
2022/01/13 06:33:53;;;;;;;86.72;14.93;;;;;;;;;;5152285;27;20505;-80
2022/01/13 06:36:19;;;;;;;102.60;15.63;;;;;;;;;;5123870;27;20096;-80
2022/01/13 06:38:48;;;;;;;122.70;16.77;;;;;;;;;;5132240;27;20526;-80
2022/01/13 06:41:15;;;;;;;115.15;16.08;;;;;;;;;;5113776;27;20059;-80
2022/01/13 06:43:42;;;;;;;101.10;14.88;;;;;;;;;;5126126;27;20047;-80
2022/01/13 06:46:08;;;;;;;126.20;17.35;;;;;;;;;;5133648;27;20055;-80
2022/01/13 06:48:34;;;;;;;100.22;16.23;;;;;;;;;;5129319;27;20063;-80
2022/01/13 06:51:01;;;;;;;107.47;15.65;;;;;;;;;;5133571;27;20087;-80
2022/01/13 06:53:27;;;;;;;159.38;19.25;;;;;;;;;;5151187;27;20579;-80
2022/01/13 06:55:53;;;;;;;101.03;16.02;;;;;;;;;;5130273;27;20086;-80
2022/01/13 06:58:20;;;;;;;106.72;16.17;;;;;;;;;;5147767;27;20083;-80
2022/01/13 07:00:46;;;;;;;90.57;14.60;;;;;;;;;;5131402;27;20087;-80
2022/01/13 07:03:13;;;;;;;112.05;14.90;;;;;;;;;;5127456;27;20600;-80
2022/01/13 07:05:39;;;;;;;100.65;14.20;;;;;;;;;;5147561;27;20108;-80
2022/01/13 07:08:10;;;;;;;111.43;16.10;;;;;;;;;;5153392;27;20104;-80
2022/01/13 07:10:36;;;;;;;93.82;14.77;;;;;;;;;;5153390;27;20051;-80
2022/01/13 07:13:03;;;;;;;119.00;14.98;;;;;;;;;;5126759;27;20055;-80
2022/01/13 07:15:31;;;;;;;97.72;15.35;;;;;;;;;;5133944;27;20116;-80
2022/01/13 07:17:58;;;;;;;79.70;14.18;;;;;;;;;;5134805;27;20058;-80
2022/01/13 07:20:27;;;;;;;84.13;16.55;;;;;;;;;;5133856;27;20054;-80
2022/01/13 07:22:53;;;;;;;86.07;14.57;;;;;;;;;;5142228;27;20056;-80
2022/01/13 07:25:20;;;;;;;96.70;14.85;;;;;;;;;;5122673;27;20090;-80
2022/01/13 07:27:46;;;;;;;82.47;14.95;;;;;;;;;;5120558;27;20169;-80
2022/01/13 07:30:12;;;;;;;86.10;14.95;;;;;;;;;;5116863;27;20039;-80
2022/01/13 07:32:39;;;;;;;80.90;13.95;;;;;;;;;;5134626;27;20043;-80
2022/01/13 07:35:06;;;;;;;91.50;14.65;;;;;;;;;;5121524;27;20074;-80
2022/01/13 07:37:33;;;;;;;86.03;14.85;;;;;;;;;;5134487;27;20407;-80
2022/01/13 07:39:59;;;;;;;92.38;15.88;;;;;;;;;;5143774;27;20496;-80
2022/01/13 07:42:26;;;;;;;100.03;16.33;;;;;;;;;;5148189;27;20055;-79
2022/01/13 07:44:53;;;;;;;91.72;15.02;;;;;;;;;;5129904;27;20051;-80
2022/01/13 07:47:19;;;;;;;78.32;14.27;;;;;;;;;;5121775;27;20562;-80
2022/01/13 07:49:46;;;;;;;90.68;15.90;;;;;;;;;;5152525;27;20479;-80
2022/01/13 07:52:13;;;;;;;96.15;15.00;;;;;;;;;;5131704;27;20052;-80
2022/01/13 07:54:39;;;;;;;94.22;14.65;;;;;;;;;;5121569;27;20506;-80
2022/01/13 07:57:05;;;;;;;100.03;14.80;;;;;;;;;;5149181;27;20047;-80
2022/01/13 07:59:32;;;;;;;60.90;13.15;;;;;;;;;;5133794;27;20059;-80
2022/01/13 08:01:58;;;;;;;75.18;13.45;;;;;;;;;;5120901;27;20066;-80
2022/01/13 08:04:25;;;;;;;75.15;13.02;;;;;;;;;;5134340;27;20106;-80
2022/01/13 08:06:52;;;;;;;80.03;14.25;;;;;;;;;;5135415;27;20055;-80
2022/01/13 08:09:21;;;;;;;82.85;14.70;;;;;;;;;;5150803;27;20123;-80
2022/01/13 08:11:47;;;;;;;54.70;12.73;;;;;;;;;;5135797;27;20087;-80
2022/01/13 08:14:14;;;;;;;100.22;15.35;;;;;;;;;;5139760;27;20116;-81
2022/01/13 08:16:43;;;;;;;69.35;12.60;;;;;;;;;;5129581;27;20102;-81
2022/01/13 08:21:55;;;;;;;84.45;14.70;;;;;;;;;;5158710;27;20066;-80
2022/01/13 08:24:21;;;;;;;319.02;27.98;;;;;;;;;;5151105;27;20084;-81
2022/01/13 08:26:48;;;;;;;83.38;14.98;;;;;;;;;;5159344;27;20100;-80
2022/01/13 08:29:14;;;;;;;98.32;16.05;;;;;;;;;;5141054;27;20116;-80
2022/01/13 08:31:40;;;;;;;88.13;15.23;;;;;;;;;;5137875;27;20040;-80
2022/01/13 08:34:07;;;;;;;72.38;14.27;;;;;;;;;;5121113;27;20140;-80
2022/01/13 08:36:34;;;;;;;63.28;13.25;;;;;;;;;;5149679;27;20077;-81
2022/01/13 08:39:00;;;;;;;76.40;13.73;;;;;;;;;;5158255;27;20146;-80
2022/01/13 08:41:26;;;;;;;71.80;14.07;;;;;;;;;;5160911;27;20048;-80
2022/01/13 08:43:55;;;;;;;67.03;14.00;;;;;;;;;;5160514;27;20061;-80
2022/01/13 08:46:23;;;;;;;79.38;14.57;;;;;;;;;;5155288;27;20585;-80
2022/01/13 08:48:51;;;;;;;67.80;15.38;;;;;;;;;;5139458;27;20051;-80
2022/01/13 08:51:18;;;;;;;93.63;16.65;;;;;;;;;;5128556;27;20059;-79
2022/01/13 08:53:45;;;;;;;69.10;14.38;;;;;;;;;;5157276;27;20055;-80
2022/01/13 08:56:12;;;;;;;109.32;17.90;;;;;;;;;;5139750;27;20052;-80
2022/01/13 08:58:38;;;;;;;80.40;14.45;;;;;;;;;;5165463;27;20067;-81
2022/01/13 09:01:07;;;;;;;81.15;16.15;;;;;;;;;;5152697;27;20051;-81
2022/01/13 09:03:34;;;;;;;79.20;13.85;;;;;;;;;;5161601;27;20043;-81
2022/01/13 09:06:02;;;;;;;167.20;24.25;;;;;;;;;;5173564;27;20485;-81
2022/01/13 09:08:33;;;;;;;72.00;15.82;;;;;;;;;;5134009;27;20582;-80
2022/01/13 09:11:00;;;;;;;78.70;15.38;;;;;;;;;;5157647;27;20127;-81
2022/01/13 09:13:26;;;;;;;132.57;18.70;;;;;;;;;;5136382;27;20048;-79
2022/01/13 09:15:58;;;;;;;73.45;16.15;;;;;;;;;;5129731;27;20101;-80
2022/01/13 09:21:10;;;;;;;85.72;15.23;;;;;;;;;;5157942;27;20076;-81
2022/01/13 09:23:36;;;;;;;92.20;15.60;;;;;;;;;;5140636;27;20050;-81
2022/01/13 09:26:04;;;;;;;74.05;15.48;;;;;;;;;;5139851;27;20052;-81
2022/01/13 09:28:31;;;;;;;78.15;14.35;;;;;;;;;;5143032;27;20046;-81
2022/01/13 09:30:57;;;;;;;75.20;15.23;;;;;;;;;;5141368;27;20043;-81
2022/01/13 09:33:25;;;;;;;66.05;13.95;;;;;;;;;;5140569;27;20108;-81
2022/01/13 09:35:51;;;;;;;79.93;14.98;;;;;;;;;;5145693;27;20051;-81
2022/01/13 09:38:18;;;;;;;55.17;13.85;;;;;;;;;;5143000;27;20510;-82
2022/01/13 09:40:45;;;;;;;77.18;14.80;;;;;;;;;;5145725;27;20048;-80
2022/01/13 09:43:12;;;;;;;67.38;14.05;;;;;;;;;;5153567;27;20113;-80
2022/01/13 09:45:39;;;;;;;71.38;14.48;;;;;;;;;;5159673;27;20050;-80
2022/01/13 09:48:06;;;;;;;73.80;16.10;;;;;;;;;;5127128;27;20036;-80
2022/01/13 09:50:32;;;;;;;56.78;14.05;;;;;;;;;;5152828;27;20930;-80
2022/01/13 09:52:58;;;;;;;67.53;14.18;;;;;;;;;;5152032;27;20090;-80
2022/01/13 09:55:25;;;;;;;74.32;15.57;;;;;;;;;;5135494;27;20106;-79
2022/01/13 09:57:52;;;;;;;69.50;14.50;;;;;;;;;;5137608;27;20841;-80
2022/01/13 10:00:24;;;;;;;68.10;14.52;;;;;;;;;;5154442;27;20094;-80
2022/01/13 10:02:51;;;;;;;74.70;16.45;;;;;;;;;;5132530;27;20058;-81
2022/01/13 10:05:18;;;;;;;72.28;14.88;;;;;;;;;;5154779;27;20054;-80
2022/01/13 10:07:45;;;;;;;58.50;15.27;;;;;;;;;;5135630;27;20039;-80
2022/01/13 10:10:24;;;;;;;70.75;16.55;;;;;;;;;;5148895;27;20051;-80
2022/01/13 10:13:04;;;;;;;68.37;16.33;;;;;;;;;;5135648;27;20077;-81
2022/01/13 10:18:39;;;;;;;67.28;15.13;;;;;;;;;;5152141;27;20055;-80
2022/01/13 10:21:07;;;;;;;75.32;16.65;;;;;;;;;;5137067;27;20136;-80
2022/01/13 10:23:33;;;;;;;72.15;16.45;;;;;;;;;;5131684;27;20077;-80
2022/01/13 10:26:08;;;;;;;74.65;16.25;;;;;;;;;;5117359;27;20052;-80
2022/01/13 10:28:34;;;;;;;97.20;18.85;;;;;;;;;;5133764;27;20052;-80
2022/01/13 10:31:01;;;;;;;68.05;16.92;;;;;;;;;;5147364;27;20154;-81
2022/01/13 10:33:28;;;;;;;54.45;14.25;;;;;;;;;;5144358;27;20105;-81
2022/01/13 10:36:05;;;;;;;74.15;15.98;;;;;;;;;;5128332;27;20104;-80
2022/01/13 10:38:51;;;;;;;55.85;14.57;;;;;;;;;;5133418;27;20109;-81
2022/01/13 10:41:29;;;;;;;52.35;14.23;;;;;;;;;;5120455;27;20125;-80
2022/01/13 10:44:17;;;;;;;63.47;17.42;;;;;;;;;;5123884;27;20052;-81
2022/01/13 10:46:56;;;;;;;56.05;16.50;;;;;;;;;;5131809;27;20495;-81
2022/01/13 10:49:29;;;;;;;54.97;15.75;;;;;;;;;;5129356;27;20055;-80
2022/01/13 10:52:26;;;;;;;56.05;16.17;;;;;;;;;;5129061;27;20047;-81
2022/01/13 10:54:54;;;;;;;52.03;15.00;;;;;;;;;;5135694;27;20051;-80
2022/01/13 10:57:22;;;;;;;53.17;14.73;;;;;;;;;;5156595;27;20090;-81
2022/01/13 10:59:49;;;;;;;45.25;15.10;;;;;;;;;;5136570;27;20055;-81
2022/01/13 11:02:17;;;;;;;48.55;14.00;;;;;;;;;;5133718;27;20051;-79
2022/01/13 11:04:43;;;;;;;47.28;14.43;;;;;;;;;;5147999;27;20082;-79
2022/01/13 11:07:15;;;;;;;55.08;16.83;;;;;;;;;;5159815;27;20054;-79
2022/01/13 11:09:44;;;;;;;59.42;15.95;;;;;;;;;;5124453;27;20051;-77
2022/01/13 11:12:12;;;;;;;51.08;15.77;;;;;;;;;;5151828;27;20055;-79
2022/01/13 11:14:43;;;;;;;57.78;16.20;;;;;;;;;;5156552;27;20065;-78
2022/01/13 11:17:10;;;;;;;43.45;14.90;;;;;;;;;;5136680;27;20054;-80
2022/01/13 11:19:38;;;;;;;46.15;15.90;;;;;;;;;;5150545;27;20102;-79
2022/01/13 11:22:05;;;;;;;48.38;16.15;;;;;;;;;;5120576;27;20056;-80
2022/01/13 11:24:31;;;;;;;49.40;15.82;;;;;;;;;;5127544;27;20051;-80
2022/01/13 11:26:59;;;;;;;52.78;16.13;;;;;;;;;;5138307;27;20090;-79
2022/01/13 11:29:25;;;;;;;48.25;16.73;;;;;;;;;;5149514;27;20055;-80
2022/01/13 11:31:52;;;;;;;59.53;17.63;;;;;;;;;;5127839;27;20052;-79
2022/01/13 11:34:18;;;;;;;47.58;15.05;;;;;;;;;;5130041;27;20057;-80
2022/01/13 11:36:45;;;;;;;46.55;15.95;;;;;;;;;;5140529;27;20566;-77
2022/01/13 11:39:11;;;;;;;50.65;16.55;;;;;;;;;;5162226;27;20071;-80
2022/01/13 11:41:56;;;;;;;50.45;15.43;;;;;;;;;;5136010;27;20085;-80
2022/01/13 11:44:24;;;;;;;53.08;15.57;;;;;;;;;;5133879;27;20588;-80
2022/01/13 11:46:51;;;;;;;53.53;15.30;;;;;;;;;;5154342;27;20144;-80
2022/01/13 11:49:35;;;;;;;53.72;14.90;;;;;;;;;;5148478;27;20089;-80
2022/01/13 11:52:12;;;;;;;54.92;14.98;;;;;;;;;;5152212;27;20063;-79
2022/01/13 11:54:39;;;;;;;58.72;14.90;;;;;;;;;;5133830;27;20063;-80
2022/01/13 11:57:27;;;;;;;66.05;16.20;;;;;;;;;;5142020;27;20104;-80
2022/01/13 11:59:58;;;;;;;56.67;15.18;;;;;;;;;;5131693;27;20055;-78
2022/01/13 12:02:25;;;;;;;52.47;14.32;;;;;;;;;;5137237;27;20605;-78
2022/01/13 12:05:06;;;;;;;73.28;17.23;;;;;;;;;;5136583;27;20081;-79
2022/01/13 12:07:34;;;;;;;60.80;16.02;;;;;;;;;;5128895;27;20108;-78
2022/01/13 12:10:00;;;;;;;69.85;16.20;;;;;;;;;;5134650;27;20132;-80
2022/01/13 12:12:29;;;;;;;58.97;16.10;;;;;;;;;;5131987;27;20035;-80
2022/01/13 12:15:13;;;;;;;64.88;17.58;;;;;;;;;;5131591;27;20480;-79
2022/01/13 12:17:43;;;;;;;54.15;14.82;;;;;;;;;;5151469;27;20043;-78
2022/01/13 12:20:20;;;;;;;55.72;16.25;;;;;;;;;;5140019;27;20055;-79
2022/01/13 12:22:56;;;;;;;58.78;16.75;;;;;;;;;;5131639;27;20117;-80
2022/01/13 12:25:31;;;;;;;55.92;15.00;;;;;;;;;;5147752;27;20051;-80
2022/01/13 12:27:58;;;;;;;56.22;15.75;;;;;;;;;;5132573;27;20040;-79
2022/01/13 12:30:29;;;;;;;55.53;16.25;;;;;;;;;;5154010;27;20124;-80
2022/01/13 12:32:59;;;;;;;56.28;16.83;;;;;;;;;;5129166;27;20083;-78
2022/01/13 12:35:38;;;;;;;50.65;15.35;;;;;;;;;;5156159;27;20051;-80
2022/01/13 12:38:09;;;;;;;52.28;16.13;;;;;;;;;;5134357;27;20051;-80
2022/01/13 12:40:50;;;;;;;50.15;15.68;;;;;;;;;;5138951;27;20867;-80
2022/01/13 12:43:22;;;;;;;58.72;16.65;;;;;;;;;;5144970;27;20575;-78
2022/01/13 12:45:49;;;;;;;61.08;16.45;;;;;;;;;;5130555;27;20055;-79
2022/01/13 12:48:15;;;;;;;61.55;16.48;;;;;;;;;;5133179;27;20430;-80
2022/01/13 12:50:43;;;;;;;62.72;17.45;;;;;;;;;;5150350;27;20055;-80
2022/01/13 12:53:26;;;;;;;64.03;17.73;;;;;;;;;;5142654;27;20610;-80
2022/01/13 12:56:02;;;;;;;67.38;17.17;;;;;;;;;;5146915;27;20144;-78
2022/01/13 12:58:48;;;;;;;70.50;18.05;;;;;;;;;;5136867;27;20074;-80
2022/01/13 13:01:16;;;;;;;53.22;15.85;;;;;;;;;;5117149;27;20534;-79
2022/01/13 13:03:56;;;;;;;80.10;18.73;;;;;;;;;;5153190;27;21379;-81
2022/01/13 13:06:23;;;;;;;93.55;18.20;;;;;;;;;;5139260;27;20070;-78
2022/01/13 13:08:49;;;;;;;87.13;19.58;;;;;;;;;;5134794;27;20055;-79
2022/01/13 13:11:16;;;;;;;74.28;17.75;;;;;;;;;;5134034;27;20079;-78
2022/01/13 13:13:50;;;;;;;75.43;18.63;;;;;;;;;;5136838;27;20047;-78
2022/01/13 13:16:17;;;;;;;66.32;17.80;;;;;;;;;;5151452;27;20065;-79
2022/01/13 13:18:44;;;;;;;65.53;17.48;;;;;;;;;;5129775;27;20077;-78
2022/01/13 13:21:11;;;;;;;54.08;16.67;;;;;;;;;;5138422;27;20100;-78
2022/01/13 13:23:38;;;;;;;57.22;16.23;;;;;;;;;;5124710;27;20051;-79
2022/01/13 13:26:08;;;;;;;55.30;16.88;;;;;;;;;;5135044;27;20055;-78
2022/01/13 13:28:42;;;;;;;50.15;15.98;;;;;;;;;;5146210;27;20040;-79
2022/01/13 13:31:09;;;;;;;53.17;16.17;;;;;;;;;;5148417;27;20059;-78
2022/01/13 13:33:50;;;;;;;52.65;14.98;;;;;;;;;;5136869;27;20112;-79
2022/01/13 13:36:18;;;;;;;58.10;17.20;;;;;;;;;;5134065;27;20050;-80
2022/01/13 13:38:45;;;;;;;54.15;16.27;;;;;;;;;;5126463;27;20071;-79
2022/01/13 13:41:12;;;;;;;55.05;15.75;;;;;;;;;;5130451;27;20047;-80
2022/01/13 13:43:59;;;;;;;54.72;15.50;;;;;;;;;;5136405;27;21508;-80
2022/01/13 13:46:26;;;;;;;55.25;15.50;;;;;;;;;;5146079;27;20062;-78
2022/01/13 13:48:52;;;;;;;44.67;13.63;;;;;;;;;;5135649;27;20493;-80
2022/01/13 13:51:27;;;;;;;40.90;13.25;;;;;;;;;;5136454;27;20063;-80
2022/01/13 13:54:14;;;;;;;56.15;14.68;;;;;;;;;;5146237;27;20052;-79
2022/01/13 13:56:45;;;;;;;46.13;13.77;;;;;;;;;;5115543;27;20051;-80
2022/01/13 13:59:11;;;;;;;;;;;;;;;;;;5136153;27;20564;-80
2022/01/13 14:01:38;;;;;;;46.80;13.70;;;;;;;;;;5128310;27;47392;-79
2022/01/13 14:04:05;;;;;;;40.67;13.38;;;;;;;;;;5134594;27;20091;-79
2022/01/13 14:06:38;;;;;;;49.80;14.82;;;;;;;;;;5134758;27;20070;-79
2022/01/13 14:09:05;;;;;;;44.20;14.45;;;;;;;;;;5134633;27;20047;-79
2022/01/13 14:11:44;;;;;;;46.72;14.00;;;;;;;;;;5130031;27;20082;-79
2022/01/13 14:14:12;;;;;;;47.42;13.80;;;;;;;;;;5131988;27;20122;-79
2022/01/13 14:16:38;;;;;;;50.38;15.00;;;;;;;;;;5150465;27;20096;-80
2022/01/13 14:19:10;;;;;;;53.40;16.20;;;;;;;;;;5143668;27;20849;-78
2022/01/13 14:21:53;;;;;;;42.92;13.40;;;;;;;;;;5153256;27;20047;-80
2022/01/13 14:24:35;;;;;;;43.33;13.98;;;;;;;;;;5132090;27;20104;-78
2022/01/13 14:27:03;;;;;;;42.85;13.68;;;;;;;;;;5147986;27;20086;-79
2022/01/13 14:29:30;;;;;;;54.03;14.73;;;;;;;;;;5146335;27;20096;-79
2022/01/13 14:32:12;;;;;;;58.58;15.38;;;;;;;;;;5137391;27;20059;-79
2022/01/13 14:34:42;;;;;;;48.13;14.18;;;;;;;;;;5134477;27;20100;-79
2022/01/13 14:37:09;;;;;;;44.38;14.00;;;;;;;;;;5151458;27;20167;-80
2022/01/13 14:39:35;;;;;;;53.00;15.07;;;;;;;;;;5132706;27;20108;-79
2022/01/13 14:42:02;;;;;;;48.70;14.95;;;;;;;;;;5131195;27;20047;-80